This is the latest recevied weather packets stored in our database for station/object DM4WH-13. If no packets are shown the sender has not sent any weather packets the latest 10 day(s).
| Time | Temp. | Humidity | Pressure | Rain* | Wind** | Luminosity | Snow |
|---|---|---|---|---|---|---|---|
| 1777709125 | 22.22° C | 36% | 1025.5 hPa | 0 mm | 0.45 m/s, 90° | - | - |
| 1777708813 | 22.22° C | 37% | 1025.5 hPa | 0 mm | 0.89 m/s, 138° | - | - |
| 1777708526 | 22.22° C | 35% | 1025.5 hPa | 0 mm | 0.45 m/s, 174° | - | - |
| 1777708213 | 22.22° C | 36% | 1025.6 hPa | 0 mm | 0.89 m/s, 330° | - | - |
| 1777707925 | 22.22° C | 37% | 1025.7 hPa | 0 mm | 0.89 m/s, 156° | - | - |
| 1777707612 | 22.22° C | 41% | 1025.8 hPa | 0 mm | 0.45 m/s, 181° | - | - |
| 1777707325 | 22.22° C | 39% | 1025.8 hPa | 0 mm | 0.45 m/s, 118° | - | - |
| 1777707013 | 21.11° C | 38% | 1025.8 hPa | 0 mm | 0.45 m/s, 62° | - | - |
| 1777706725 | 21.11° C | 39% | 1025.8 hPa | 0 mm | 0.45 m/s, 96° | - | - |
| 1777706412 | 21.11° C | 40% | 1025.9 hPa | 0 mm | 0.45 m/s, 146° | - | - |
| 1777706125 | 21.11° C | 42% | 1025.8 hPa | 0 mm | 0.45 m/s, 147° | - | - |
| 1777705812 | 21.11° C | 41% | 1025.8 hPa | 0 mm | 0 m/s | - | - |
| 1777705525 | 20° C | 43% | 1025.9 hPa | 0 mm | 0 m/s | - | - |
| 1777705212 | 18.89° C | 42% | 1025.9 hPa | 0 mm | 0 m/s | - | - |
| 1777704925 | 18.89° C | 44% | 1025.9 hPa | 0 mm | 0 m/s | - | - |
| 1777704612 | 18.89° C | 44% | 1025.9 hPa | 0 mm | 0 m/s | - | - |
| 1777704325 | 17.78° C | 45% | 1026 hPa | 0 mm | 0 m/s | - | - |
| 1777704012 | 17.78° C | 45% | 1026 hPa | 0 mm | 0 m/s | - | - |
| 1777703725 | 17.22° C | 49% | 1026.1 hPa | 0 mm | 0 m/s | - | - |
| 1777703412 | 16.11° C | 49% | 1026.1 hPa | 0 mm | 0.45 m/s, 287° | - | - |
| 1777703125 | 16.11° C | 51% | 1026.1 hPa | 0 mm | 0 m/s | - | - |
| 1777702813 | 16.11° C | 47% | 1026.1 hPa | 0 mm | 0.45 m/s, 287° | - | - |
| 1777702537 | 15° C | 51% | 1026.1 hPa | 0 mm | 0 m/s | - | - |
| 1777702225 | 15° C | 53% | 1026.1 hPa | 0 mm | 0.45 m/s, 287° | - | - |
| 1777701912 | 15° C | 51% | 1026 hPa | 0 mm | 0.45 m/s, 287° | - | - |
* Rain latest hour (hover to see other rain measurements)
** Current wind speed in m/s (hover to see current wind gust speed)